Time;durP1;ratioP1;P1;durP2;ratioP2;P2;SDS_P1;SDS_P2;PMS_P1;PMS_P2;Temp;Humidity;BMP_temperature;BMP_pressure;BME280_temperature;BME280_humidity;BME280_pressure;Samples;Min_cycle;Max_cycle;Signal;HPM_P1;HPM_P2
2022/01/02 00:01:09;;;;;;;15.25;5.30;;;;;;;-145.00;100.00;60578.66;5073740;28;20064;-51
2022/01/02 00:03:41;;;;;;;24.20;6.43;;;;;;;-145.00;100.00;60578.66;5073687;28;20064;-49
2022/01/02 00:06:09;;;;;;;19.10;5.70;;;;;;;-145.00;100.00;60578.66;5074531;28;20162;-48
2022/01/02 00:08:43;;;;;;;18.63;6.45;;;;;;;-145.00;100.00;60578.66;5073789;28;20056;-48
2022/01/02 00:11:13;;;;;;;15.32;6.28;;;;;;;-145.00;100.00;60578.66;5074487;28;20057;-49
2022/01/02 00:13:47;;;;;;;19.98;6.85;;;;;;;-145.00;100.00;60578.66;5074910;28;20053;-49
2022/01/02 00:16:17;;;;;;;18.80;7.13;;;;;;;-145.00;100.00;60578.66;5074338;28;20052;-51
2022/01/02 00:19:02;;;;;;;19.60;6.85;;;;;;;-145.00;100.00;60578.66;5074759;28;20149;-48
2022/01/02 00:21:32;;;;;;;22.45;7.20;;;;;;;-145.00;100.00;60578.66;5074359;28;20056;-49
2022/01/02 00:24:06;;;;;;;20.42;7.55;;;;;;;-145.00;100.00;60578.66;5074181;28;20052;-51
2022/01/02 00:26:39;;;;;;;22.30;7.97;;;;;;;-145.00;100.00;60578.66;5073465;28;20068;-49
2022/01/02 00:29:08;;;;;;;17.98;6.82;;;;;;;-145.00;100.00;60578.66;5073442;28;20058;-51
2022/01/02 00:31:36;;;;;;;24.58;7.18;;;;;;;-145.00;100.00;60578.66;5073682;28;20139;-50
2022/01/02 00:34:05;;;;;;;18.02;8.43;;;;;;;-145.00;100.00;60578.66;5073343;28;20067;-49
2022/01/02 00:36:34;;;;;;;28.65;7.85;;;;;;;-145.00;100.00;60578.66;5073895;28;20053;-48
2022/01/02 00:39:06;;;;;;;23.42;7.82;;;;;;;-145.00;100.00;60578.66;5073584;28;20071;-50
2022/01/02 00:41:39;;;;;;;23.17;8.45;;;;;;;-145.00;100.00;60578.66;5074494;28;20063;-49
2022/01/02 00:44:16;;;;;;;26.10;6.93;;;;;;;-145.00;100.00;60578.66;5073328;28;20526;-48
2022/01/02 00:46:51;;;;;;;20.50;8.52;;;;;;;-145.00;100.00;60578.66;5073644;28;20052;-50
2022/01/02 00:49:26;;;;;;;16.95;6.53;;;;;;;-145.00;100.00;60578.66;5073296;28;20063;-49
2022/01/02 00:52:00;;;;;;;20.65;7.50;;;;;;;-145.00;100.00;60578.66;5074326;28;20057;-49
2022/01/02 00:54:30;;;;;;;18.30;7.57;;;;;;;-145.00;100.00;60578.66;5074056;28;20056;-49
2022/01/02 00:57:02;;;;;;;23.10;7.72;;;;;;;-145.00;100.00;60578.66;5074329;28;20049;-50
2022/01/02 00:59:39;;;;;;;24.20;7.43;;;;;;;-145.00;100.00;60578.66;5074441;28;20056;-50
2022/01/02 01:02:09;;;;;;;17.58;7.32;;;;;;;-145.00;100.00;60578.66;5073167;28;20059;-48
2022/01/02 01:04:38;;;;;;;16.08;7.05;;;;;;;-145.00;100.00;60578.66;5077222;28;20484;-50
2022/01/02 01:07:07;;;;;;;20.55;7.38;;;;;;;-145.00;100.00;60578.66;5076923;28;20092;-48
2022/01/02 01:09:36;;;;;;;21.42;7.57;;;;;;;-145.00;100.00;60578.66;5077413;28;20052;-48
2022/01/02 01:12:06;;;;;;;23.35;7.03;;;;;;;-145.00;100.00;60578.66;5077132;28;20052;-49
2022/01/02 01:14:34;;;;;;;17.00;6.57;;;;;;;-145.00;100.00;60578.66;5077263;28;20067;-51
2022/01/02 01:17:02;;;;;;;22.20;7.18;;;;;;;-145.00;100.00;60578.66;5077023;28;20488;-49
2022/01/02 01:19:30;;;;;;;17.92;6.38;;;;;;;-145.00;100.00;60578.66;5076481;28;20056;-48
2022/01/02 01:21:59;;;;;;;21.85;5.90;;;;;;;-145.00;100.00;60578.66;5077287;28;20135;-50
2022/01/02 01:24:29;;;;;;;21.85;6.30;;;;;;;-145.00;100.00;60578.66;5076379;28;20063;-50
2022/01/02 01:27:00;;;;;;;20.60;6.85;;;;;;;-145.00;100.00;60578.66;5077717;28;20084;-50
2022/01/02 01:29:33;;;;;;;29.50;6.78;;;;;;;-145.00;100.00;60578.66;5076990;28;20409;-50
2022/01/02 01:32:02;;;;;;;21.92;5.47;;;;;;;-145.00;100.00;60578.66;5077378;28;20059;-48
2022/01/02 01:34:30;;;;;;;21.35;5.55;;;;;;;-145.00;100.00;60578.66;5077075;28;20123;-49
2022/01/02 01:36:59;;;;;;;17.25;6.18;;;;;;;-145.00;100.00;60578.66;5076368;28;20057;-51
2022/01/02 01:39:27;;;;;;;20.45;5.97;;;;;;;-145.00;100.00;60578.66;5076620;28;20053;-49
2022/01/02 01:42:06;;;;;;;15.73;5.68;;;;;;;-145.00;100.00;60578.66;5076758;28;20056;-48
2022/01/02 01:45:02;;;;;;;20.38;6.15;;;;;;;-145.00;100.00;60578.66;5077436;28;20400;-51
2022/01/02 01:47:30;;;;;;;18.85;6.47;;;;;;;-145.00;100.00;60578.66;5075919;28;20067;-49
2022/01/02 01:49:58;;;;;;;20.02;6.13;;;;;;;-145.00;100.00;60578.66;5076467;28;20501;-51
2022/01/02 01:52:27;;;;;;;19.70;6.28;;;;;;;-145.00;100.00;60578.66;5076091;28;20424;-50
2022/01/02 01:54:55;;;;;;;17.95;5.68;;;;;;;-145.00;100.00;60578.66;5075747;28;20139;-49
2022/01/02 01:57:24;;;;;;;18.38;6.63;;;;;;;-145.00;100.00;60578.66;5075976;28;20451;-51
2022/01/02 01:59:53;;;;;;;19.95;5.70;;;;;;;-145.00;100.00;60578.66;5076232;28;20504;-51
2022/01/02 02:02:22;;;;;;;13.90;5.45;;;;;;;-145.00;100.00;60578.66;5075846;28;20053;-49
2022/01/02 02:04:50;;;;;;;11.35;5.03;;;;;;;-145.00;100.00;60578.66;5075592;28;20060;-49
2022/01/02 02:07:26;;;;;;;16.55;5.63;;;;;;;-145.00;100.00;60578.66;5076758;28;20139;-51
2022/01/02 02:10:05;;;;;;;12.50;5.53;;;;;;;-145.00;100.00;60578.66;5076354;28;20067;-51
2022/01/02 02:12:34;;;;;;;12.85;5.07;;;;;;;-145.00;100.00;60578.66;5076315;28;20071;-50
2022/01/02 02:15:03;;;;;;;14.75;5.07;;;;;;;-145.00;100.00;60578.66;5075664;28;20060;-48
2022/01/02 02:17:32;;;;;;;13.93;4.57;;;;;;;-145.00;100.00;60578.66;5076683;28;20056;-51
2022/01/02 02:20:11;;;;;;;11.13;4.68;;;;;;;-145.00;100.00;60578.66;5075534;28;20068;-49
2022/01/02 02:22:41;;;;;;;12.23;4.97;;;;;;;-145.00;100.00;60578.66;5075255;28;20052;-49
2022/01/02 02:25:11;;;;;;;12.85;3.88;;;;;;;-145.00;100.00;60578.66;5075860;28;20064;-49
2022/01/02 02:27:39;;;;;;;12.50;4.38;;;;;;;-145.00;100.00;60578.66;5075660;28;20421;-50
2022/01/02 02:30:09;;;;;;;9.07;3.58;;;;;;;-145.00;100.00;60578.66;5075318;28;20056;-50
2022/01/02 02:32:38;;;;;;;10.80;3.88;;;;;;;-145.00;100.00;60578.66;5075585;28;20139;-50
2022/01/02 02:35:08;;;;;;;10.27;4.00;;;;;;;-145.00;100.00;60578.66;5075251;28;20424;-50
2022/01/02 02:37:41;;;;;;;7.55;3.60;;;;;;;-145.00;100.00;60578.66;5075730;28;20052;-49
2022/01/02 02:40:10;;;;;;;11.70;3.60;;;;;;;-145.00;100.00;60578.66;5076320;28;20052;-50
2022/01/02 02:42:46;;;;;;;16.02;4.38;;;;;;;-145.00;100.00;60578.66;5075945;28;20060;-49
2022/01/02 02:51:05;;;;;;;13.63;3.70;;;;;;;-145.00;100.00;60578.66;5076103;28;20408;-50
2022/01/02 02:53:35;;;;;;;16.67;3.27;;;;;;;-145.00;100.00;60578.66;5074664;28;20091;-48
2022/01/02 02:56:12;;;;;;;11.15;3.20;;;;;;;-145.00;100.00;60578.66;5074716;28;20066;-48
2022/01/02 02:58:42;;;;;;;17.05;4.78;;;;;;;-145.00;100.00;60578.66;5075434;28;20052;-50
2022/01/02 03:01:12;;;;;;;17.33;2.85;;;;;;;-145.00;100.00;60578.66;5074737;28;20056;-50
2022/01/02 03:03:41;;;;;;;12.57;3.08;;;;;;;-145.00;100.00;60578.66;5075350;28;20106;-49
2022/01/02 03:06:11;;;;;;;8.10;2.80;;;;;;;-145.00;100.00;60578.66;5074979;28;20060;-50
2022/01/02 03:08:40;;;;;;;8.95;2.55;;;;;;;-145.00;100.00;60578.66;5075237;28;20060;-50
2022/01/02 03:11:13;;;;;;;14.20;2.92;;;;;;;-145.00;100.00;60578.66;5075716;28;20087;-50
2022/01/02 03:13:41;;;;;;;11.70;2.92;;;;;;;-145.00;100.00;60578.66;5074953;28;20056;-50
2022/01/02 03:16:10;;;;;;;13.38;2.85;;;;;;;-145.00;100.00;60578.66;5075250;28;20053;-50
2022/01/02 03:18:38;;;;;;;8.95;2.40;;;;;;;-145.00;100.00;60578.66;5074664;28;20071;-51
2022/01/02 03:21:07;;;;;;;9.05;2.50;;;;;;;-145.00;100.00;60578.66;5075301;28;20056;-49
2022/01/02 03:23:37;;;;;;;10.15;2.50;;;;;;;-145.00;100.00;60578.66;5074156;28;20060;-50
2022/01/02 03:26:05;;;;;;;14.98;2.55;;;;;;;-145.00;100.00;60578.66;5073820;28;20061;-50
2022/01/02 03:28:33;;;;;;;13.63;2.88;;;;;;;-145.00;100.00;60578.66;5074900;28;20052;-49
2022/01/02 03:31:02;;;;;;;20.92;2.70;;;;;;;-145.00;100.00;60578.66;5074639;28;20053;-51
2022/01/02 03:33:30;;;;;;;15.55;2.78;;;;;;;-145.00;100.00;60578.66;5074713;28;20083;-51
2022/01/02 03:35:58;;;;;;;11.77;2.45;;;;;;;-145.00;100.00;60578.66;5074475;28;20056;-51
2022/01/02 03:38:27;;;;;;;16.00;2.83;;;;;;;-145.00;100.00;60578.66;5074607;28;20052;-49
2022/01/02 03:41:07;;;;;;;16.05;2.30;;;;;;;-145.00;100.00;60578.66;5074481;28;20068;-51
2022/01/02 03:43:35;;;;;;;19.58;2.78;;;;;;;-145.00;100.00;60578.66;5073903;28;20542;-49
2022/01/02 03:46:04;;;;;;;15.25;2.83;;;;;;;-145.00;100.00;60578.66;5074697;28;20056;-48
2022/01/02 03:48:33;;;;;;;20.55;3.13;;;;;;;-145.00;100.00;60578.66;5074647;28;20056;-50
2022/01/02 03:51:05;;;;;;;15.07;2.60;;;;;;;-145.00;100.00;60578.66;5073816;28;20516;-50
2022/01/02 03:53:33;;;;;;;16.00;2.92;;;;;;;-145.00;100.00;60578.66;5074056;28;20056;-51
2022/01/02 03:56:03;;;;;;;16.67;2.30;;;;;;;-145.00;100.00;60578.66;5074535;28;20061;-51
2022/01/02 03:58:31;;;;;;;16.40;2.53;;;;;;;-145.00;100.00;60578.66;5074017;28;20056;-48
2022/01/02 04:01:00;;;;;;;15.90;3.25;;;;;;;-145.00;100.00;60578.66;5074466;28;20064;-50
2022/01/02 04:03:28;;;;;;;14.52;2.58;;;;;;;-145.00;100.00;60578.66;5074776;28;20057;-50
2022/01/02 04:05:56;;;;;;;21.83;2.60;;;;;;;-145.00;100.00;60578.66;5073945;28;20067;-51
2022/01/02 04:08:25;;;;;;;16.20;3.08;;;;;;;-145.00;100.00;60578.66;5074207;28;20409;-50
2022/01/02 04:10:53;;;;;;;22.08;2.63;;;;;;;-145.00;100.00;60578.66;5074193;28;20075;-49
2022/01/02 04:13:22;;;;;;;15.88;2.83;;;;;;;-145.00;100.00;60578.66;5074183;28;20059;-48
2022/01/02 04:15:50;;;;;;;23.17;2.65;;;;;;;-145.00;100.00;60578.66;5073735;28;20110;-51
2022/01/02 04:18:19;;;;;;;17.35;2.47;;;;;;;-145.00;100.00;60578.66;5074763;28;20071;-51
2022/01/02 04:20:49;;;;;;;24.52;3.47;;;;;;;-145.00;100.00;60578.66;5074253;28;20060;-50
2022/01/02 04:23:17;;;;;;;24.00;3.95;;;;;;;-145.00;100.00;60578.66;5073517;28;20057;-49
2022/01/02 04:25:45;;;;;;;20.52;3.10;;;;;;;-145.00;100.00;60578.66;5073540;28;20063;-49
2022/01/02 04:28:14;;;;;;;14.40;2.88;;;;;;;-145.00;100.00;60578.66;5074049;28;20056;-50
2022/01/02 04:30:43;;;;;;;24.67;2.95;;;;;;;-145.00;100.00;60578.66;5073701;28;20526;-50
2022/01/02 04:33:12;;;;;;;18.58;3.00;;;;;;;-145.00;100.00;60578.66;5073685;28;20059;-50
2022/01/02 04:35:40;;;;;;;27.30;3.50;;;;;;;-145.00;100.00;60578.66;5074508;28;20070;-49
2022/01/02 04:38:09;;;;;;;17.80;2.58;;;;;;;-145.00;100.00;60578.66;5075069;28;20059;-50
2022/01/02 04:40:37;;;;;;;23.27;2.30;;;;;;;-145.00;100.00;60578.66;5077413;28;20059;-49
2022/01/02 04:43:05;;;;;;;17.92;2.67;;;;;;;-145.00;100.00;60578.66;5077702;28;20416;-51
2022/01/02 04:45:34;;;;;;;19.38;3.47;;;;;;;-145.00;100.00;60578.66;5078327;28;20087;-49
2022/01/02 04:48:04;;;;;;;16.30;3.05;;;;;;;-145.00;100.00;60578.66;5077891;28;20480;-51
2022/01/02 04:50:32;;;;;;;12.75;2.08;;;;;;;-145.00;100.00;60578.66;5078373;28;20056;-51
2022/01/02 04:53:01;;;;;;;14.77;2.58;;;;;;;-145.00;100.00;60578.66;5077909;28;20459;-50
2022/01/02 04:55:29;;;;;;;20.63;3.63;;;;;;;-145.00;100.00;60578.66;5078003;28;20053;-49
2022/01/02 04:57:57;;;;;;;18.98;2.65;;;;;;;-145.00;100.00;60578.66;5077426;28;20053;-49
2022/01/02 05:00:25;;;;;;;17.58;2.60;;;;;;;-145.00;100.00;60578.66;5077010;28;20063;-50
2022/01/02 05:02:54;;;;;;;18.02;2.80;;;;;;;-145.00;100.00;60578.66;5077021;28;20139;-51
2022/01/02 05:05:23;;;;;;;17.00;3.25;;;;;;;-145.00;100.00;60578.66;5077644;28;20397;-49
2022/01/02 05:07:52;;;;;;;13.18;2.83;;;;;;;-145.00;100.00;60578.66;5077528;28;20057;-48
2022/01/02 05:10:20;;;;;;;17.67;3.40;;;;;;;-145.00;100.00;60578.66;5076871;28;20432;-51
2022/01/02 05:12:48;;;;;;;19.67;2.97;;;;;;;-145.00;100.00;60578.66;5077687;28;20064;-49
2022/01/02 05:15:19;;;;;;;16.13;2.60;;;;;;;-145.00;100.00;60578.66;5076540;28;20067;-50
2022/01/02 05:17:48;;;;;;;20.35;3.58;;;;;;;-145.00;100.00;60578.66;5077219;28;20060;-48
2022/01/02 05:20:17;;;;;;;10.25;2.45;;;;;;;-145.00;100.00;60578.66;5077243;28;20071;-51
2022/01/02 05:22:47;;;;;;;11.73;2.50;;;;;;;-145.00;100.00;60578.66;5076664;28;20056;-49
2022/01/02 05:25:15;;;;;;;14.75;3.85;;;;;;;-145.00;100.00;60578.66;5076385;28;20056;-51
2022/01/02 05:27:43;;;;;;;17.25;2.53;;;;;;;-145.00;100.00;60578.66;5076575;28;20550;-51
2022/01/02 05:30:12;;;;;;;23.23;2.58;;;;;;;-145.00;100.00;60578.66;5077192;28;20052;-50
2022/01/02 05:32:40;;;;;;;14.30;2.45;;;;;;;-145.00;100.00;60578.66;5076771;28;20420;-50
2022/01/02 05:35:11;;;;;;;14.18;2.67;;;;;;;-145.00;100.00;60578.66;5077086;28;20111;-51
2022/01/02 05:37:39;;;;;;;20.88;3.33;;;;;;;-145.00;100.00;60578.66;5076359;28;20053;-49
2022/01/02 05:40:10;;;;;;;15.98;3.20;;;;;;;-145.00;100.00;60578.66;5076328;28;20053;-50
2022/01/02 05:42:38;;;;;;;10.05;2.78;;;;;;;-145.00;100.00;60578.66;5077463;28;20053;-50
2022/01/02 05:45:07;;;;;;;9.38;2.08;;;;;;;-145.00;100.00;60578.66;5075959;28;20068;-50
2022/01/02 05:47:38;;;;;;;15.23;2.35;;;;;;;-145.00;100.00;60578.66;5076150;28;20504;-48
2022/01/02 05:50:06;;;;;;;9.27;2.10;;;;;;;-145.00;100.00;60578.66;5075192;28;20526;-49
2022/01/02 05:52:35;;;;;;;15.80;2.20;;;;;;;-145.00;100.00;60578.66;5076091;28;20057;-50
2022/01/02 05:55:04;;;;;;;9.95;2.53;;;;;;;-145.00;100.00;60578.66;5075848;28;20056;-51
2022/01/02 05:57:34;;;;;;;13.70;2.15;;;;;;;-145.00;100.00;60578.66;5075931;28;20064;-48
2022/01/02 06:00:02;;;;;;;7.40;2.15;;;;;;;-145.00;100.00;60578.66;5076581;28;20049;-50
2022/01/02 06:02:31;;;;;;;16.10;2.88;;;;;;;-145.00;100.00;60578.66;5076241;28;20056;-50
2022/01/02 06:05:00;;;;;;;19.48;2.67;;;;;;;-145.00;100.00;60578.66;5076625;28;20098;-50
2022/01/02 06:07:28;;;;;;;20.25;3.17;;;;;;;-145.00;100.00;60578.66;5076122;28;20382;-49
2022/01/02 06:09:56;;;;;;;13.43;3.65;;;;;;;-145.00;100.00;60578.66;5076051;28;20064;-50
2022/01/02 06:12:25;;;;;;;21.20;3.78;;;;;;;-145.00;100.00;60578.66;5076034;28;20060;-50
2022/01/02 06:14:54;;;;;;;11.63;1.77;;;;;;;-145.00;100.00;60578.66;5076062;28;20053;-48
2022/01/02 06:17:22;;;;;;;11.48;1.83;;;;;;;-145.00;100.00;60578.66;5076284;28;20057;-51
2022/01/02 06:19:51;;;;;;;11.27;1.58;;;;;;;-145.00;100.00;60578.66;5076158;28;20146;-48
2022/01/02 06:22:19;;;;;;;14.38;2.47;;;;;;;-145.00;100.00;60578.66;5076016;28;20063;-51
2022/01/02 06:24:47;;;;;;;10.38;2.15;;;;;;;-145.00;100.00;60578.66;5076378;28;20067;-50
2022/01/02 06:27:15;;;;;;;17.67;1.92;;;;;;;-145.00;100.00;60578.66;5075415;28;20063;-49
2022/01/02 06:29:43;;;;;;;17.73;1.85;;;;;;;-145.00;100.00;60578.66;5075391;28;20060;-50
2022/01/02 06:32:13;;;;;;;12.23;1.65;;;;;;;-145.00;100.00;60578.66;5075334;28;20052;-49
2022/01/02 06:34:44;;;;;;;10.35;1.42;;;;;;;-145.00;100.00;60578.66;5075895;28;20408;-50
2022/01/02 06:37:12;;;;;;;13.60;2.05;;;;;;;-145.00;100.00;60578.66;5075244;28;20053;-50
2022/01/02 06:39:40;;;;;;;7.53;1.60;;;;;;;-145.00;100.00;60578.66;5075167;28;20057;-49
2022/01/02 06:42:09;;;;;;;11.40;1.83;;;;;;;-145.00;100.00;60578.66;5075409;28;20052;-51
2022/01/02 06:44:37;;;;;;;10.77;1.65;;;;;;;-145.00;100.00;60578.66;5075995;28;20064;-51
2022/01/02 06:47:05;;;;;;;9.48;1.42;;;;;;;-145.00;100.00;60578.66;5075021;28;20060;-49
2022/01/02 06:49:35;;;;;;;9.70;1.42;;;;;;;-145.00;100.00;60578.66;5075522;28;20092;-50
2022/01/02 06:52:04;;;;;;;12.52;1.65;;;;;;;-145.00;100.00;60578.66;5076114;28;20102;-51
2022/01/02 06:54:32;;;;;;;11.57;1.52;;;;;;;-145.00;100.00;60578.66;5075760;28;20484;-48
2022/01/02 06:57:01;;;;;;;14.88;1.70;;;;;;;-145.00;100.00;60578.66;5075041;28;20063;-48
2022/01/02 06:59:30;;;;;;;8.48;1.55;;;;;;;-145.00;100.00;60578.66;5074832;28;20504;-51
2022/01/02 07:01:59;;;;;;;16.55;2.45;;;;;;;-145.00;100.00;60578.66;5075230;28;20106;-50
2022/01/02 07:04:28;;;;;;;11.10;1.98;;;;;;;-145.00;100.00;60578.66;5074439;28;20517;-48
2022/01/02 07:06:58;;;;;;;11.68;1.95;;;;;;;-145.00;100.00;60578.66;5074633;28;20060;-51
2022/01/02 07:09:27;;;;;;;8.80;2.20;;;;;;;-145.00;100.00;60578.66;5074885;28;20061;-49
2022/01/02 07:11:55;;;;;;;13.88;2.13;;;;;;;-145.00;100.00;60578.66;5075139;28;20397;-50
2022/01/02 07:14:26;;;;;;;11.63;1.75;;;;;;;-145.00;100.00;60578.66;5075085;28;20056;-50
2022/01/02 07:16:55;;;;;;;7.63;1.38;;;;;;;-145.00;100.00;60578.66;5074188;28;20059;-51
2022/01/02 07:19:23;;;;;;;11.43;2.00;;;;;;;-145.00;100.00;60578.66;5075515;28;20368;-51
2022/01/02 07:21:52;;;;;;;10.07;1.70;;;;;;;-145.00;100.00;60578.66;5074428;28;20523;-51
2022/01/02 07:24:21;;;;;;;15.05;1.75;;;;;;;-145.00;100.00;60578.66;5074870;28;20060;-49
2022/01/02 07:26:50;;;;;;;15.43;1.77;;;;;;;-145.00;100.00;60578.66;5075511;28;20056;-51
2022/01/02 07:29:19;;;;;;;13.52;2.17;;;;;;;-145.00;100.00;60578.66;5074655;28;20053;-50
2022/01/02 07:31:47;;;;;;;10.07;1.42;;;;;;;-145.00;100.00;60578.66;5074602;28;20060;-49
2022/01/02 07:34:15;;;;;;;19.88;3.60;;;;;;;-145.00;100.00;60578.66;5074032;28;20067;-49
2022/01/02 07:36:44;;;;;;;16.42;2.88;;;;;;;-145.00;100.00;60578.66;5074169;28;20526;-50
2022/01/02 07:39:14;;;;;;;12.60;2.33;;;;;;;-145.00;100.00;60578.66;5075098;28;20053;-51
2022/01/02 07:41:44;;;;;;;10.40;2.33;;;;;;;-145.00;100.00;60578.66;5074879;28;20409;-50
2022/01/02 07:44:12;;;;;;;10.52;1.60;;;;;;;-145.00;100.00;60578.66;5073947;28;20139;-49
2022/01/02 07:46:40;;;;;;;16.50;2.40;;;;;;;-145.00;100.00;60578.66;5074122;28;20057;-50
2022/01/02 07:49:08;;;;;;;15.23;2.22;;;;;;;-145.00;100.00;60578.66;5074085;28;20057;-50
2022/01/02 07:51:37;;;;;;;8.38;1.75;;;;;;;-145.00;100.00;60578.66;5074098;28;20065;-49
2022/01/02 07:54:05;;;;;;;11.40;1.75;;;;;;;-145.00;100.00;60578.66;5073833;28;20052;-51
2022/01/02 07:56:33;;;;;;;13.32;2.25;;;;;;;-145.00;100.00;60578.66;5074044;28;20064;-51
2022/01/02 07:59:03;;;;;;;18.42;3.05;;;;;;;-145.00;100.00;60578.66;5074746;28;20508;-50
2022/01/02 08:01:31;;;;;;;16.95;3.15;;;;;;;-145.00;100.00;60578.66;5074293;28;20099;-51
2022/01/02 08:04:00;;;;;;;16.60;2.53;;;;;;;-145.00;100.00;60578.66;5075125;28;20083;-49
2022/01/02 08:06:28;;;;;;;16.10;2.78;;;;;;;-145.00;100.00;60578.66;5074468;28;20063;-50
2022/01/02 08:08:56;;;;;;;15.52;2.38;;;;;;;-145.00;100.00;60578.66;5074805;28;20060;-50
2022/01/02 08:11:24;;;;;;;17.80;2.22;;;;;;;-145.00;100.00;60578.66;5075053;28;20063;-50
2022/01/02 08:14:15;;;;;;;15.88;2.55;;;;;;;-145.00;100.00;60578.66;5077060;28;20057;-49
2022/01/02 08:16:44;;;;;;;18.02;3.67;;;;;;;-145.00;100.00;60578.66;5077739;28;20056;-51
2022/01/02 08:19:12;;;;;;;16.98;2.33;;;;;;;-145.00;100.00;60578.66;5078726;28;20063;-49
2022/01/02 08:21:41;;;;;;;14.50;2.70;;;;;;;-145.00;100.00;60578.66;5078312;28;20056;-50
2022/01/02 08:24:09;;;;;;;17.75;2.20;;;;;;;-145.00;100.00;60578.66;5078418;28;20059;-49
2022/01/02 08:26:37;;;;;;;16.35;2.85;;;;;;;-145.00;100.00;60578.66;5077733;28;20067;-50
2022/01/02 08:29:05;;;;;;;16.35;2.50;;;;;;;-145.00;100.00;60578.66;5077686;28;20056;-48
2022/01/02 08:31:35;;;;;;;19.52;5.00;;;;;;;-145.00;100.00;60578.66;5077660;28;20052;-50
2022/01/02 08:34:04;;;;;;;15.95;2.50;;;;;;;-145.00;100.00;60578.66;5077342;28;20098;-50
2022/01/02 08:36:32;;;;;;;22.92;2.97;;;;;;;-145.00;100.00;60578.66;5077519;28;20064;-51
2022/01/02 08:39:00;;;;;;;22.23;3.75;;;;;;;-145.00;100.00;60578.66;5077716;28;20061;-51
2022/01/02 08:41:28;;;;;;;17.35;2.50;;;;;;;-145.00;100.00;60578.66;5077770;28;20061;-50
2022/01/02 08:43:56;;;;;;;19.60;2.65;;;;;;;-145.00;100.00;60578.66;5078330;28;20052;-51
2022/01/02 08:46:25;;;;;;;23.67;3.13;;;;;;;-145.00;100.00;60578.66;5077658;28;20057;-50
2022/01/02 08:48:54;;;;;;;21.48;3.00;;;;;;;-145.00;100.00;60578.66;5077278;28;20543;-51
2022/01/02 08:51:27;;;;;;;18.63;2.28;;;;;;;-145.00;100.00;60578.66;5077915;28;20056;-48
2022/01/02 08:53:55;;;;;;;20.85;3.85;;;;;;;-145.00;100.00;60578.66;5076980;28;20143;-49
2022/01/02 08:56:24;;;;;;;23.02;3.70;;;;;;;-145.00;100.00;60578.66;5077167;28;20056;-50
2022/01/02 08:58:52;;;;;;;22.10;3.92;;;;;;;-145.00;100.00;60578.66;5077915;28;20056;-49
2022/01/02 09:01:20;;;;;;;21.42;2.67;;;;;;;-145.00;100.00;60578.66;5077352;28;20052;-49
2022/01/02 09:03:48;;;;;;;21.85;3.35;;;;;;;-145.00;100.00;60578.66;5077076;28;20056;-50
2022/01/02 09:06:18;;;;;;;21.90;2.63;;;;;;;-145.00;100.00;60578.66;5076990;28;20135;-51
2022/01/02 09:08:46;;;;;;;22.23;3.20;;;;;;;-145.00;100.00;60578.66;5076941;28;20064;-50
2022/01/02 09:11:15;;;;;;;19.77;3.33;;;;;;;-145.00;100.00;60578.66;5077493;28;20053;-50
2022/01/02 09:13:43;;;;;;;26.58;4.38;;;;;;;-145.00;100.00;60578.66;5077962;28;20052;-49
2022/01/02 09:16:11;;;;;;;20.83;4.88;;;;;;;-145.00;100.00;60578.66;5076760;28;20056;-50
2022/01/02 09:18:39;;;;;;;18.70;2.50;;;;;;;-145.00;100.00;60578.66;5076822;28;20068;-51
2022/01/02 09:21:08;;;;;;;16.50;2.28;;;;;;;-145.00;100.00;60578.66;5077249;28;20072;-49
2022/01/02 09:23:37;;;;;;;16.00;2.70;;;;;;;-145.00;100.00;60578.66;5076727;28;20071;-49
2022/01/02 09:26:05;;;;;;;16.00;3.17;;;;;;;-145.00;100.00;60578.66;5076630;28;20056;-51
2022/01/02 09:28:34;;;;;;;21.45;2.45;;;;;;;-145.00;100.00;60578.66;5076925;28;20056;-50
2022/01/02 09:31:03;;;;;;;20.25;3.28;;;;;;;-145.00;100.00;60578.66;5076538;28;20067;-51
2022/01/02 09:33:31;;;;;;;11.40;2.40;;;;;;;-145.00;100.00;60578.66;5076829;28;20064;-50
2022/01/02 09:36:00;;;;;;;18.42;2.92;;;;;;;-145.00;100.00;60578.66;5076724;28;20539;-49
2022/01/02 09:38:28;;;;;;;17.80;3.30;;;;;;;-145.00;100.00;60578.66;5076581;28;20496;-51
2022/01/02 09:40:59;;;;;;;22.20;4.07;;;;;;;-145.00;100.00;60578.66;5077461;28;20058;-50
2022/01/02 09:43:28;;;;;;;12.70;3.50;;;;;;;-145.00;100.00;60578.66;5076056;28;20072;-51
2022/01/02 09:45:56;;;;;;;19.83;2.95;;;;;;;-145.00;100.00;60578.66;5076580;28;20409;-49
2022/01/02 09:48:25;;;;;;;16.60;2.72;;;;;;;-145.00;100.00;60578.66;5076772;28;20067;-50
2022/01/02 09:50:53;;;;;;;16.27;2.45;;;;;;;-145.00;100.00;60578.66;5076467;28;20057;-50
2022/01/02 09:53:21;;;;;;;20.33;3.17;;;;;;;-145.00;100.00;60578.66;5076657;28;20056;-49
2022/01/02 09:55:54;;;;;;;22.10;3.00;;;;;;;-145.00;100.00;60578.66;5075814;28;20092;-51
2022/01/02 09:58:26;;;;;;;30.48;3.95;;;;;;;-145.00;100.00;60578.66;5075840;28;20504;-51
2022/01/02 10:00:54;;;;;;;15.52;3.00;;;;;;;-145.00;100.00;60578.66;5075738;28;20059;-51
2022/01/02 10:03:23;;;;;;;24.77;3.85;;;;;;;-145.00;100.00;60578.66;5075923;28;20052;-48
2022/01/02 10:05:55;;;;;;;20.67;2.13;;;;;;;-145.00;100.00;60578.66;5076421;28;20095;-49
2022/01/02 10:08:25;;;;;;;25.52;2.75;;;;;;;-145.00;100.00;60578.66;5076148;28;20056;-48
2022/01/02 10:11:00;;;;;;;19.52;3.28;;;;;;;-145.00;100.00;60578.66;5076609;28;20063;-49
2022/01/02 10:13:45;;;;;;;18.38;2.40;;;;;;;-145.00;100.00;60578.66;5075701;28;20516;-49
2022/01/02 10:16:21;;;;;;;16.15;3.00;;;;;;;-145.00;100.00;60578.66;5076819;28;20067;-49
2022/01/02 10:18:52;;;;;;;18.45;2.92;;;;;;;-145.00;100.00;60578.66;5076112;28;20067;-49
2022/01/02 10:21:35;;;;;;;21.52;3.03;;;;;;;-145.00;100.00;60578.66;5076196;28;20056;-49
2022/01/02 10:24:17;;;;;;;20.13;2.67;;;;;;;-145.00;100.00;60578.66;5075537;28;20052;-50
2022/01/02 10:27:12;;;;;;;11.30;2.00;;;;;;;-145.00;100.00;60578.66;5076054;28;20056;-50
2022/01/02 10:29:45;;;;;;;19.63;2.63;;;;;;;-145.00;100.00;60578.66;5075134;28;20057;-51
2022/01/02 10:32:31;;;;;;;17.77;2.75;;;;;;;-145.00;100.00;60578.66;5075035;28;20056;-49
2022/01/02 10:35:14;;;;;;;19.73;2.70;;;;;;;-145.00;100.00;60578.66;5075335;28;20507;-51
2022/01/02 10:37:43;;;;;;;15.35;2.55;;;;;;;-145.00;100.00;60578.66;5075097;28;20526;-50
2022/01/02 10:40:26;;;;;;;14.85;2.65;;;;;;;-145.00;100.00;60578.66;5075359;28;20064;-49
2022/01/02 10:42:54;;;;;;;17.52;3.17;;;;;;;-145.00;100.00;60578.66;5076282;28;20053;-49
2022/01/02 10:45:38;;;;;;;14.43;2.60;;;;;;;-145.00;100.00;60578.66;5076249;28;20389;-49
2022/01/02 10:48:09;;;;;;;16.05;2.75;;;;;;;-145.00;100.00;60578.66;5075911;28;20103;-51
2022/01/02 10:50:38;;;;;;;13.43;2.88;;;;;;;-145.00;100.00;60578.66;5075299;28;20064;-50
2022/01/02 10:53:15;;;;;;;22.05;3.88;;;;;;;-145.00;100.00;60578.66;5074910;28;20423;-50
2022/01/02 10:55:46;;;;;;;18.23;2.88;;;;;;;-145.00;100.00;60578.66;5074581;28;20058;-51
2022/01/02 10:58:15;;;;;;;15.68;3.28;;;;;;;-145.00;100.00;60578.66;5074565;28;20056;-50
2022/01/02 11:00:46;;;;;;;20.73;2.88;;;;;;;-145.00;100.00;60578.66;5074613;28;20061;-49
2022/01/02 11:03:16;;;;;;;17.67;2.60;;;;;;;-145.00;100.00;60578.66;5075852;28;20446;-48
2022/01/02 11:05:46;;;;;;;17.73;2.50;;;;;;;-145.00;100.00;60578.66;5075191;28;20066;-49
2022/01/02 11:08:15;;;;;;;18.58;3.65;;;;;;;-145.00;100.00;60578.66;5074887;28;20508;-48
2022/01/02 11:10:43;;;;;;;27.17;2.88;;;;;;;-145.00;100.00;60578.66;5074594;28;20558;-49
2022/01/02 11:13:11;;;;;;;20.45;3.03;;;;;;;-145.00;100.00;60578.66;5074520;28;20056;-50
2022/01/02 11:15:40;;;;;;;18.42;3.13;;;;;;;-145.00;100.00;60578.66;5075107;28;20094;-49
2022/01/02 11:18:09;;;;;;;24.00;3.10;;;;;;;-145.00;100.00;60578.66;5074979;28;20060;-49
2022/01/02 11:20:39;;;;;;;17.15;2.80;;;;;;;-145.00;100.00;60578.66;5074858;28;20068;-50